Terminal Aerodrome Forecast
Issued by NWS

Home | Current Version | Previous Version | Text Only | Print | Product List | Glossary On
Versions: 1 2 3 4 5 6 7 8 9 10 11 12 13 14 15 16 17
000
FTUS41 KGYX 230500
TAFAUG
TAF
KAUG 230520Z 2306/2406 VRB03KT P6SM SCT250
     FM230700 VRB03KT 5SM BR SCT002
     FM231300 21009KT P6SM SCT050 SCT250
     FM232100 21010KT 5SM -TSRA BKN050CB
     FM240300 28005KT P6SM BKN100=

USA.gov is the U.S. government's official web portal to all federal, state and local government web resources and services.